sensor_id;sensor_type;location;lat;lon;timestamp;P1;durP1;ratioP1;P2;durP2;ratioP2
70078;SDS011;57451;52.496;13.456;2023-04-06T00:00:48;10.98;;;6.32;;
70078;SDS011;57451;52.496;13.456;2023-04-06T00:03:16;13.02;;;7.15;;
70078;SDS011;57451;52.496;13.456;2023-04-06T00:05:46;11.27;;;6.65;;
70078;SDS011;57451;52.496;13.456;2023-04-06T00:08:14;10.82;;;7.22;;
70078;SDS011;57451;52.496;13.456;2023-04-06T00:10:42;12.40;;;6.70;;
70078;SDS011;57451;52.496;13.456;2023-04-06T00:13:09;10.82;;;6.80;;
70078;SDS011;57451;52.496;13.456;2023-04-06T00:15:37;11.50;;;6.57;;
70078;SDS011;57451;52.496;13.456;2023-04-06T00:18:04;13.27;;;6.70;;
70078;SDS011;57451;52.496;13.456;2023-04-06T00:20:31;9.30;;;6.20;;
70078;SDS011;57451;52.496;13.456;2023-04-06T00:22:59;11.07;;;6.43;;
70078;SDS011;57451;52.496;13.456;2023-04-06T00:25:27;9.57;;;6.25;;
70078;SDS011;57451;52.496;13.456;2023-04-06T00:27:54;11.82;;;6.80;;
70078;SDS011;57451;52.496;13.456;2023-04-06T00:30:22;10.02;;;6.10;;
70078;SDS011;57451;52.496;13.456;2023-04-06T00:32:49;10.20;;;6.25;;
70078;SDS011;57451;52.496;13.456;2023-04-06T00:35:16;10.27;;;6.30;;
70078;SDS011;57451;52.496;13.456;2023-04-06T00:37:45;12.93;;;6.88;;
70078;SDS011;57451;52.496;13.456;2023-04-06T00:40:13;12.15;;;6.32;;
70078;SDS011;57451;52.496;13.456;2023-04-06T00:42:42;11.13;;;6.13;;
70078;SDS011;57451;52.496;13.456;2023-04-06T00:45:10;11.10;;;6.70;;
70078;SDS011;57451;52.496;13.456;2023-04-06T00:47:38;10.97;;;6.53;;
70078;SDS011;57451;52.496;13.456;2023-04-06T00:50:06;11.23;;;6.90;;
70078;SDS011;57451;52.496;13.456;2023-04-06T00:52:34;12.07;;;6.78;;
70078;SDS011;57451;52.496;13.456;2023-04-06T00:55:04;11.05;;;6.97;;
70078;SDS011;57451;52.496;13.456;2023-04-06T00:57:36;10.45;;;6.50;;
70078;SDS011;57451;52.496;13.456;2023-04-06T01:00:06;10.97;;;6.27;;
70078;SDS011;57451;52.496;13.456;2023-04-06T01:02:34;10.10;;;6.53;;
70078;SDS011;57451;52.496;13.456;2023-04-06T01:05:02;11.55;;;6.60;;
70078;SDS011;57451;52.496;13.456;2023-04-06T01:07:50;13.13;;;6.82;;
70078;SDS011;57451;52.496;13.456;2023-04-06T01:10:22;16.15;;;6.97;;
70078;SDS011;57451;52.496;13.456;2023-04-06T01:12:51;12.70;;;6.67;;
70078;SDS011;57451;52.496;13.456;2023-04-06T01:15:36;10.95;;;6.63;;
70078;SDS011;57451;52.496;13.456;2023-04-06T01:18:07;11.93;;;6.80;;
70078;SDS011;57451;52.496;13.456;2023-04-06T01:20:41;10.43;;;6.50;;
70078;SDS011;57451;52.496;13.456;2023-04-06T01:23:10;13.43;;;6.22;;
70078;SDS011;57451;52.496;13.456;2023-04-06T01:25:44;10.30;;;6.33;;
70078;SDS011;57451;52.496;13.456;2023-04-06T01:28:12;10.93;;;6.00;;
70078;SDS011;57451;52.496;13.456;2023-04-06T01:30:51;10.32;;;6.30;;
70078;SDS011;57451;52.496;13.456;2023-04-06T01:33:37;10.95;;;6.45;;
70078;SDS011;57451;52.496;13.456;2023-04-06T01:36:08;11.55;;;6.57;;
70078;SDS011;57451;52.496;13.456;2023-04-06T01:38:37;10.10;;;6.43;;
70078;SDS011;57451;52.496;13.456;2023-04-06T01:41:04;12.48;;;6.25;;
70078;SDS011;57451;52.496;13.456;2023-04-06T01:43:43;10.98;;;6.45;;
70078;SDS011;57451;52.496;13.456;2023-04-06T01:46:11;11.50;;;6.68;;
70078;SDS011;57451;52.496;13.456;2023-04-06T01:48:41;10.75;;;6.95;;
70078;SDS011;57451;52.496;13.456;2023-04-06T01:51:16;11.13;;;6.50;;
70078;SDS011;57451;52.496;13.456;2023-04-06T01:53:51;11.18;;;6.05;;
70078;SDS011;57451;52.496;13.456;2023-04-06T01:56:21;10.88;;;6.82;;
70078;SDS011;57451;52.496;13.456;2023-04-06T01:59:09;11.30;;;6.88;;
70078;SDS011;57451;52.496;13.456;2023-04-06T02:01:40;13.70;;;6.85;;
70078;SDS011;57451;52.496;13.456;2023-04-06T02:04:08;12.63;;;6.90;;
70078;SDS011;57451;52.496;13.456;2023-04-06T02:06:36;10.18;;;6.70;;
70078;SDS011;57451;52.496;13.456;2023-04-06T02:09:06;11.20;;;6.63;;
70078;SDS011;57451;52.496;13.456;2023-04-06T02:11:34;12.90;;;7.10;;
70078;SDS011;57451;52.496;13.456;2023-04-06T02:14:02;13.25;;;7.00;;
70078;SDS011;57451;52.496;13.456;2023-04-06T02:16:33;12.93;;;6.73;;
70078;SDS011;57451;52.496;13.456;2023-04-06T02:19:00;14.13;;;7.43;;
70078;SDS011;57451;52.496;13.456;2023-04-06T02:21:27;10.43;;;7.10;;
70078;SDS011;57451;52.496;13.456;2023-04-06T02:23:55;12.02;;;7.60;;
70078;SDS011;57451;52.496;13.456;2023-04-06T02:26:23;13.15;;;7.57;;
70078;SDS011;57451;52.496;13.456;2023-04-06T02:28:51;13.60;;;7.43;;
70078;SDS011;57451;52.496;13.456;2023-04-06T02:31:18;12.15;;;7.60;;
70078;SDS011;57451;52.496;13.456;2023-04-06T02:33:45;13.02;;;8.02;;
70078;SDS011;57451;52.496;13.456;2023-04-06T02:36:14;13.27;;;7.95;;
70078;SDS011;57451;52.496;13.456;2023-04-06T02:38:42;12.50;;;7.55;;
70078;SDS011;57451;52.496;13.456;2023-04-06T02:41:09;14.27;;;8.27;;
70078;SDS011;57451;52.496;13.456;2023-04-06T02:43:39;16.17;;;8.75;;
70078;SDS011;57451;52.496;13.456;2023-04-06T02:46:15;13.80;;;9.13;;
70078;SDS011;57451;52.496;13.456;2023-04-06T02:48:42;13.05;;;8.77;;
70078;SDS011;57451;52.496;13.456;2023-04-06T02:51:09;13.75;;;9.13;;
70078;SDS011;57451;52.496;13.456;2023-04-06T02:53:37;12.90;;;9.00;;
70078;SDS011;57451;52.496;13.456;2023-04-06T02:56:05;13.70;;;9.15;;
70078;SDS011;57451;52.496;13.456;2023-04-06T02:58:45;15.02;;;8.88;;
70078;SDS011;57451;52.496;13.456;2023-04-06T03:01:12;15.05;;;9.10;;
70078;SDS011;57451;52.496;13.456;2023-04-06T03:03:41;13.77;;;8.48;;
70078;SDS011;57451;52.496;13.456;2023-04-06T03:06:15;11.07;;;7.60;;
70078;SDS011;57451;52.496;13.456;2023-04-06T03:08:43;13.98;;;8.25;;
70078;SDS011;57451;52.496;13.456;2023-04-06T03:11:10;15.50;;;8.05;;
70078;SDS011;57451;52.496;13.456;2023-04-06T03:13:40;12.25;;;8.30;;
70078;SDS011;57451;52.496;13.456;2023-04-06T03:16:10;12.75;;;8.02;;
70078;SDS011;57451;52.496;13.456;2023-04-06T03:18:39;13.37;;;8.43;;
70078;SDS011;57451;52.496;13.456;2023-04-06T03:21:07;15.20;;;8.20;;
70078;SDS011;57451;52.496;13.456;2023-04-06T03:23:48;13.77;;;8.95;;
70078;SDS011;57451;52.496;13.456;2023-04-06T03:26:18;12.43;;;8.02;;
70078;SDS011;57451;52.496;13.456;2023-04-06T03:28:46;12.93;;;8.73;;
70078;SDS011;57451;52.496;13.456;2023-04-06T03:31:15;13.53;;;8.60;;
70078;SDS011;57451;52.496;13.456;2023-04-06T03:33:53;14.27;;;8.60;;
70078;SDS011;57451;52.496;13.456;2023-04-06T03:36:33;15.77;;;8.65;;
70078;SDS011;57451;52.496;13.456;2023-04-06T03:39:02;13.38;;;8.27;;
70078;SDS011;57451;52.496;13.456;2023-04-06T03:41:33;15.20;;;8.95;;
70078;SDS011;57451;52.496;13.456;2023-04-06T03:44:28;14.93;;;8.57;;
70078;SDS011;57451;52.496;13.456;2023-04-06T03:46:56;12.38;;;8.05;;
70078;SDS011;57451;52.496;13.456;2023-04-06T03:49:24;12.10;;;8.15;;
70078;SDS011;57451;52.496;13.456;2023-04-06T03:51:53;12.80;;;8.15;;
70078;SDS011;57451;52.496;13.456;2023-04-06T03:54:20;15.48;;;8.90;;
70078;SDS011;57451;52.496;13.456;2023-04-06T03:56:47;13.93;;;8.57;;
70078;SDS011;57451;52.496;13.456;2023-04-06T03:59:15;16.00;;;8.80;;
70078;SDS011;57451;52.496;13.456;2023-04-06T04:01:42;15.18;;;9.50;;
70078;SDS011;57451;52.496;13.456;2023-04-06T04:04:11;15.27;;;8.90;;
70078;SDS011;57451;52.496;13.456;2023-04-06T04:06:38;14.25;;;8.70;;
70078;SDS011;57451;52.496;13.456;2023-04-06T04:09:07;16.50;;;9.03;;
70078;SDS011;57451;52.496;13.456;2023-04-06T04:11:35;14.80;;;8.85;;
70078;SDS011;57451;52.496;13.456;2023-04-06T04:14:02;13.35;;;8.68;;
70078;SDS011;57451;52.496;13.456;2023-04-06T04:16:30;12.63;;;8.05;;
70078;SDS011;57451;52.496;13.456;2023-04-06T04:18:57;14.40;;;8.52;;
70078;SDS011;57451;52.496;13.456;2023-04-06T04:21:30;17.13;;;8.10;;
70078;SDS011;57451;52.496;13.456;2023-04-06T04:24:02;14.30;;;8.15;;
70078;SDS011;57451;52.496;13.456;2023-04-06T04:26:32;15.15;;;8.38;;
70078;SDS011;57451;52.496;13.456;2023-04-06T04:28:59;14.45;;;8.18;;
70078;SDS011;57451;52.496;13.456;2023-04-06T04:31:27;12.77;;;8.18;;
70078;SDS011;57451;52.496;13.456;2023-04-06T04:33:58;14.30;;;8.10;;
70078;SDS011;57451;52.496;13.456;2023-04-06T04:36:31;11.82;;;7.30;;
70078;SDS011;57451;52.496;13.456;2023-04-06T04:39:02;12.10;;;7.82;;
70078;SDS011;57451;52.496;13.456;2023-04-06T04:41:35;10.35;;;6.60;;
70078;SDS011;57451;52.496;13.456;2023-04-06T04:44:06;15.07;;;7.57;;
70078;SDS011;57451;52.496;13.456;2023-04-06T04:46:33;13.37;;;7.07;;
70078;SDS011;57451;52.496;13.456;2023-04-06T04:49:01;12.13;;;7.25;;
70078;SDS011;57451;52.496;13.456;2023-04-06T04:51:31;12.57;;;7.28;;
70078;SDS011;57451;52.496;13.456;2023-04-06T04:54:15;13.32;;;7.15;;
70078;SDS011;57451;52.496;13.456;2023-04-06T04:56:43;13.05;;;7.18;;
70078;SDS011;57451;52.496;13.456;2023-04-06T04:59:23;10.83;;;6.73;;
70078;SDS011;57451;52.496;13.456;2023-04-06T05:02:03;15.40;;;6.35;;
70078;SDS011;57451;52.496;13.456;2023-04-06T05:04:40;11.20;;;7.03;;
70078;SDS011;57451;52.496;13.456;2023-04-06T05:07:12;14.80;;;7.30;;
70078;SDS011;57451;52.496;13.456;2023-04-06T05:09:43;12.77;;;6.78;;
70078;SDS011;57451;52.496;13.456;2023-04-06T05:12:11;14.10;;;6.93;;
70078;SDS011;57451;52.496;13.456;2023-04-06T05:14:49;12.73;;;6.85;;
70078;SDS011;57451;52.496;13.456;2023-04-06T05:17:18;14.43;;;6.43;;
70078;SDS011;57451;52.496;13.456;2023-04-06T05:19:46;11.52;;;6.53;;
70078;SDS011;57451;52.496;13.456;2023-04-06T05:22:20;12.20;;;7.32;;
70078;SDS011;57451;52.496;13.456;2023-04-06T05:24:56;11.30;;;6.40;;
70078;SDS011;57451;52.496;13.456;2023-04-06T05:27:23;12.35;;;6.40;;
70078;SDS011;57451;52.496;13.456;2023-04-06T05:29:52;10.88;;;6.45;;
70078;SDS011;57451;52.496;13.456;2023-04-06T05:32:24;13.27;;;6.82;;
70078;SDS011;57451;52.496;13.456;2023-04-06T05:34:53;11.60;;;6.28;;
70078;SDS011;57451;52.496;13.456;2023-04-06T05:37:22;10.93;;;6.35;;
70078;SDS011;57451;52.496;13.456;2023-04-06T05:39:50;14.85;;;6.53;;
70078;SDS011;57451;52.496;13.456;2023-04-06T05:42:18;15.02;;;6.97;;
70078;SDS011;57451;52.496;13.456;2023-04-06T05:44:51;13.35;;;6.43;;
70078;SDS011;57451;52.496;13.456;2023-04-06T05:47:18;11.53;;;5.77;;
70078;SDS011;57451;52.496;13.456;2023-04-06T05:49:50;11.88;;;6.32;;
70078;SDS011;57451;52.496;13.456;2023-04-06T05:52:29;13.68;;;6.90;;
70078;SDS011;57451;52.496;13.456;2023-04-06T05:54:56;12.55;;;6.20;;
70078;SDS011;57451;52.496;13.456;2023-04-06T05:57:24;11.70;;;6.90;;
70078;SDS011;57451;52.496;13.456;2023-04-06T05:59:52;13.93;;;7.00;;
70078;SDS011;57451;52.496;13.456;2023-04-06T06:02:20;14.30;;;7.10;;
70078;SDS011;57451;52.496;13.456;2023-04-06T06:04:50;14.10;;;7.72;;
70078;SDS011;57451;52.496;13.456;2023-04-06T06:07:18;15.60;;;7.47;;
70078;SDS011;57451;52.496;13.456;2023-04-06T06:09:57;13.00;;;7.47;;
70078;SDS011;57451;52.496;13.456;2023-04-06T06:12:31;13.80;;;7.50;;
70078;SDS011;57451;52.496;13.456;2023-04-06T06:14:59;14.07;;;7.47;;
70078;SDS011;57451;52.496;13.456;2023-04-06T06:17:28;15.13;;;8.02;;
70078;SDS011;57451;52.496;13.456;2023-04-06T06:19:56;14.73;;;7.18;;
70078;SDS011;57451;52.496;13.456;2023-04-06T06:22:25;14.50;;;7.97;;
70078;SDS011;57451;52.496;13.456;2023-04-06T06:24:53;15.50;;;7.30;;
70078;SDS011;57451;52.496;13.456;2023-04-06T06:27:22;15.98;;;7.50;;
70078;SDS011;57451;52.496;13.456;2023-04-06T06:29:49;14.65;;;6.60;;
70078;SDS011;57451;52.496;13.456;2023-04-06T06:32:17;11.20;;;6.50;;
70078;SDS011;57451;52.496;13.456;2023-04-06T06:34:48;9.95;;;6.15;;
70078;SDS011;57451;52.496;13.456;2023-04-06T06:37:17;9.47;;;5.87;;
70078;SDS011;57451;52.496;13.456;2023-04-06T06:39:44;10.68;;;5.68;;
70078;SDS011;57451;52.496;13.456;2023-04-06T06:42:12;11.38;;;6.57;;
70078;SDS011;57451;52.496;13.456;2023-04-06T06:45:02;9.23;;;5.82;;
70078;SDS011;57451;52.496;13.456;2023-04-06T06:47:29;10.70;;;5.57;;
70078;SDS011;57451;52.496;13.456;2023-04-06T06:49:57;15.13;;;6.00;;
70078;SDS011;57451;52.496;13.456;2023-04-06T06:52:24;10.93;;;5.95;;
70078;SDS011;57451;52.496;13.456;2023-04-06T06:54:51;10.38;;;5.75;;
70078;SDS011;57451;52.496;13.456;2023-04-06T06:57:21;10.45;;;6.18;;
70078;SDS011;57451;52.496;13.456;2023-04-06T06:59:48;12.75;;;5.97;;
70078;SDS011;57451;52.496;13.456;2023-04-06T07:02:18;11.33;;;5.70;;
70078;SDS011;57451;52.496;13.456;2023-04-06T07:04:47;11.05;;;6.30;;
70078;SDS011;57451;52.496;13.456;2023-04-06T07:07:15;9.85;;;6.20;;
70078;SDS011;57451;52.496;13.456;2023-04-06T07:09:42;11.25;;;5.80;;
70078;SDS011;57451;52.496;13.456;2023-04-06T07:12:09;8.40;;;5.40;;
70078;SDS011;57451;52.496;13.456;2023-04-06T07:14:37;10.67;;;5.80;;
70078;SDS011;57451;52.496;13.456;2023-04-06T07:17:04;11.95;;;5.63;;
70078;SDS011;57451;52.496;13.456;2023-04-06T07:19:32;11.38;;;5.13;;
70078;SDS011;57451;52.496;13.456;2023-04-06T07:22:00;10.48;;;5.18;;
70078;SDS011;57451;52.496;13.456;2023-04-06T07:24:27;8.90;;;4.75;;
70078;SDS011;57451;52.496;13.456;2023-04-06T07:26:54;11.40;;;5.03;;
70078;SDS011;57451;52.496;13.456;2023-04-06T07:29:23;10.50;;;5.20;;
70078;SDS011;57451;52.496;13.456;2023-04-06T07:31:51;10.85;;;4.68;;
70078;SDS011;57451;52.496;13.456;2023-04-06T07:34:18;8.18;;;4.90;;
70078;SDS011;57451;52.496;13.456;2023-04-06T07:36:47;9.00;;;4.50;;
70078;SDS011;57451;52.496;13.456;2023-04-06T07:39:14;9.27;;;4.47;;
70078;SDS011;57451;52.496;13.456;2023-04-06T07:41:41;10.85;;;5.75;;
70078;SDS011;57451;52.496;13.456;2023-04-06T07:44:09;11.38;;;5.35;;
70078;SDS011;57451;52.496;13.456;2023-04-06T07:46:37;10.30;;;4.55;;
70078;SDS011;57451;52.496;13.456;2023-04-06T07:49:04;10.45;;;5.07;;
70078;SDS011;57451;52.496;13.456;2023-04-06T07:51:35;11.77;;;5.97;;
70078;SDS011;57451;52.496;13.456;2023-04-06T07:54:04;12.48;;;6.82;;
70078;SDS011;57451;52.496;13.456;2023-04-06T07:56:32;17.83;;;9.20;;
70078;SDS011;57451;52.496;13.456;2023-04-06T07:58:59;13.88;;;7.47;;
70078;SDS011;57451;52.496;13.456;2023-04-06T08:01:27;12.18;;;6.45;;
70078;SDS011;57451;52.496;13.456;2023-04-06T08:03:54;10.30;;;4.83;;
70078;SDS011;57451;52.496;13.456;2023-04-06T08:06:22;9.65;;;5.00;;
70078;SDS011;57451;52.496;13.456;2023-04-06T08:08:49;8.55;;;4.20;;
70078;SDS011;57451;52.496;13.456;2023-04-06T08:11:18;7.57;;;3.90;;
70078;SDS011;57451;52.496;13.456;2023-04-06T08:13:45;9.02;;;3.85;;
70078;SDS011;57451;52.496;13.456;2023-04-06T08:16:13;6.00;;;3.20;;
70078;SDS011;57451;52.496;13.456;2023-04-06T08:18:40;6.93;;;3.38;;
70078;SDS011;57451;52.496;13.456;2023-04-06T08:21:07;10.52;;;3.92;;
70078;SDS011;57451;52.496;13.456;2023-04-06T08:23:34;7.50;;;3.60;;
70078;SDS011;57451;52.496;13.456;2023-04-06T08:26:01;6.93;;;3.10;;
70078;SDS011;57451;52.496;13.456;2023-04-06T08:28:30;7.73;;;2.97;;
70078;SDS011;57451;52.496;13.456;2023-04-06T08:30:57;10.35;;;3.53;;
70078;SDS011;57451;52.496;13.456;2023-04-06T08:33:24;6.80;;;3.45;;
70078;SDS011;57451;52.496;13.456;2023-04-06T08:35:52;6.00;;;3.08;;
70078;SDS011;57451;52.496;13.456;2023-04-06T08:38:19;7.55;;;3.08;;
70078;SDS011;57451;52.496;13.456;2023-04-06T08:40:46;8.10;;;3.13;;
70078;SDS011;57451;52.496;13.456;2023-04-06T08:43:16;5.30;;;2.50;;
70078;SDS011;57451;52.496;13.456;2023-04-06T08:45:47;6.57;;;2.72;;
70078;SDS011;57451;52.496;13.456;2023-04-06T08:48:15;6.18;;;2.55;;
70078;SDS011;57451;52.496;13.456;2023-04-06T08:50:44;5.55;;;2.13;;
70078;SDS011;57451;52.496;13.456;2023-04-06T08:53:11;5.00;;;2.27;;
70078;SDS011;57451;52.496;13.456;2023-04-06T08:55:38;6.85;;;2.40;;
70078;SDS011;57451;52.496;13.456;2023-04-06T08:58:08;4.78;;;2.00;;
70078;SDS011;57451;52.496;13.456;2023-04-06T09:00:37;5.53;;;2.67;;
70078;SDS011;57451;52.496;13.456;2023-04-06T09:03:07;6.53;;;2.60;;
70078;SDS011;57451;52.496;13.456;2023-04-06T09:05:35;5.07;;;2.10;;
70078;SDS011;57451;52.496;13.456;2023-04-06T09:08:02;5.82;;;2.35;;
70078;SDS011;57451;52.496;13.456;2023-04-06T09:10:30;7.40;;;2.50;;
70078;SDS011;57451;52.496;13.456;2023-04-06T09:13:05;6.95;;;2.45;;
70078;SDS011;57451;52.496;13.456;2023-04-06T09:15:32;6.43;;;2.30;;
70078;SDS011;57451;52.496;13.456;2023-04-06T09:18:00;6.77;;;2.60;;
70078;SDS011;57451;52.496;13.456;2023-04-06T09:20:29;7.45;;;2.78;;
70078;SDS011;57451;52.496;13.456;2023-04-06T09:22:56;6.00;;;2.55;;
70078;SDS011;57451;52.496;13.456;2023-04-06T09:25:24;5.65;;;2.35;;
70078;SDS011;57451;52.496;13.456;2023-04-06T09:27:59;5.38;;;2.17;;
70078;SDS011;57451;52.496;13.456;2023-04-06T09:30:27;5.23;;;2.17;;
70078;SDS011;57451;52.496;13.456;2023-04-06T09:32:56;6.13;;;2.10;;
70078;SDS011;57451;52.496;13.456;2023-04-06T09:35:24;5.45;;;2.30;;
70078;SDS011;57451;52.496;13.456;2023-04-06T09:37:54;4.63;;;2.03;;
70078;SDS011;57451;52.496;13.456;2023-04-06T09:40:22;4.63;;;2.03;;
70078;SDS011;57451;52.496;13.456;2023-04-06T09:42:50;4.53;;;1.60;;
70078;SDS011;57451;52.496;13.456;2023-04-06T09:45:24;4.63;;;1.85;;
70078;SDS011;57451;52.496;13.456;2023-04-06T09:47:52;4.40;;;1.92;;
70078;SDS011;57451;52.496;13.456;2023-04-06T09:50:23;6.93;;;1.42;;
70078;SDS011;57451;52.496;13.456;2023-04-06T09:52:52;4.05;;;1.80;;
70078;SDS011;57451;52.496;13.456;2023-04-06T09:55:26;5.97;;;2.30;;
70078;SDS011;57451;52.496;13.456;2023-04-06T09:57:58;4.80;;;1.67;;
70078;SDS011;57451;52.496;13.456;2023-04-06T10:00:31;6.53;;;1.88;;
70078;SDS011;57451;52.496;13.456;2023-04-06T10:03:02;5.78;;;1.83;;
70078;SDS011;57451;52.496;13.456;2023-04-06T10:05:37;4.03;;;1.60;;
70078;SDS011;57451;52.496;13.456;2023-04-06T10:08:10;4.10;;;1.80;;
70078;SDS011;57451;52.496;13.456;2023-04-06T10:10:38;4.78;;;1.95;;
70078;SDS011;57451;52.496;13.456;2023-04-06T10:13:05;4.85;;;1.90;;
70078;SDS011;57451;52.496;13.456;2023-04-06T10:15:34;4.88;;;1.98;;
70078;SDS011;57451;52.496;13.456;2023-04-06T10:18:01;4.68;;;1.75;;
70078;SDS011;57451;52.496;13.456;2023-04-06T10:20:31;4.10;;;1.80;;
70078;SDS011;57451;52.496;13.456;2023-04-06T10:23:08;4.50;;;1.83;;
70078;SDS011;57451;52.496;13.456;2023-04-06T10:25:51;4.47;;;1.85;;
70078;SDS011;57451;52.496;13.456;2023-04-06T10:28:20;4.90;;;2.00;;
70078;SDS011;57451;52.496;13.456;2023-04-06T10:30:47;4.72;;;1.80;;
70078;SDS011;57451;52.496;13.456;2023-04-06T10:33:15;4.20;;;1.87;;
70078;SDS011;57451;52.496;13.456;2023-04-06T10:35:43;4.60;;;1.80;;
70078;SDS011;57451;52.496;13.456;2023-04-06T10:38:12;5.63;;;2.00;;
70078;SDS011;57451;52.496;13.456;2023-04-06T10:40:41;4.32;;;1.90;;
70078;SDS011;57451;52.496;13.456;2023-04-06T10:43:17;4.32;;;2.00;;
70078;SDS011;57451;52.496;13.456;2023-04-06T10:45:52;4.47;;;1.93;;
70078;SDS011;57451;52.496;13.456;2023-04-06T10:48:22;7.07;;;1.90;;
70078;SDS011;57451;52.496;13.456;2023-04-06T10:50:51;4.53;;;2.10;;
70078;SDS011;57451;52.496;13.456;2023-04-06T10:53:24;3.75;;;1.70;;
70078;SDS011;57451;52.496;13.456;2023-04-06T10:55:53;4.82;;;1.83;;
70078;SDS011;57451;52.496;13.456;2023-04-06T10:58:24;5.40;;;2.27;;
70078;SDS011;57451;52.496;13.456;2023-04-06T11:00:51;4.43;;;1.90;;
70078;SDS011;57451;52.496;13.456;2023-04-06T11:03:20;5.50;;;2.28;;
70078;SDS011;57451;52.496;13.456;2023-04-06T11:05:48;4.43;;;2.03;;
70078;SDS011;57451;52.496;13.456;2023-04-06T11:08:24;4.57;;;1.90;;
70078;SDS011;57451;52.496;13.456;2023-04-06T11:11:03;4.83;;;1.97;;
70078;SDS011;57451;52.496;13.456;2023-04-06T11:13:38;4.20;;;2.00;;
70078;SDS011;57451;52.496;13.456;2023-04-06T11:16:11;4.72;;;2.03;;
70078;SDS011;57451;52.496;13.456;2023-04-06T11:18:46;6.22;;;1.95;;
70078;SDS011;57451;52.496;13.456;2023-04-06T11:21:17;4.15;;;2.10;;
70078;SDS011;57451;52.496;13.456;2023-04-06T11:23:46;4.50;;;1.97;;
70078;SDS011;57451;52.496;13.456;2023-04-06T11:26:14;4.93;;;2.05;;
70078;SDS011;57451;52.496;13.456;2023-04-06T11:28:42;5.35;;;2.38;;
70078;SDS011;57451;52.496;13.456;2023-04-06T11:31:10;4.60;;;2.20;;
70078;SDS011;57451;52.496;13.456;2023-04-06T11:33:38;4.63;;;2.22;;
70078;SDS011;57451;52.496;13.456;2023-04-06T11:36:06;5.77;;;2.10;;
70078;SDS011;57451;52.496;13.456;2023-04-06T11:38:34;6.20;;;2.30;;
70078;SDS011;57451;52.496;13.456;2023-04-06T11:41:07;4.15;;;2.13;;
70078;SDS011;57451;52.496;13.456;2023-04-06T11:43:34;4.75;;;2.30;;
70078;SDS011;57451;52.496;13.456;2023-04-06T11:46:02;4.68;;;2.30;;
70078;SDS011;57451;52.496;13.456;2023-04-06T11:48:30;4.07;;;2.10;;
70078;SDS011;57451;52.496;13.456;2023-04-06T11:50:58;4.97;;;2.28;;
70078;SDS011;57451;52.496;13.456;2023-04-06T11:53:27;5.35;;;2.47;;
70078;SDS011;57451;52.496;13.456;2023-04-06T11:55:55;4.55;;;2.20;;
70078;SDS011;57451;52.496;13.456;2023-04-06T11:58:24;4.97;;;2.33;;
70078;SDS011;57451;52.496;13.456;2023-04-06T12:00:51;5.10;;;2.43;;
70078;SDS011;57451;52.496;13.456;2023-04-06T12:03:19;4.78;;;2.60;;
70078;SDS011;57451;52.496;13.456;2023-04-06T12:05:46;4.40;;;2.40;;
70078;SDS011;57451;52.496;13.456;2023-04-06T12:08:14;4.78;;;2.70;;
70078;SDS011;57451;52.496;13.456;2023-04-06T12:10:41;4.78;;;2.45;;
70078;SDS011;57451;52.496;13.456;2023-04-06T12:13:08;5.00;;;2.30;;
70078;SDS011;57451;52.496;13.456;2023-04-06T12:15:37;5.55;;;2.58;;
70078;SDS011;57451;52.496;13.456;2023-04-06T12:18:04;4.90;;;2.40;;
70078;SDS011;57451;52.496;13.456;2023-04-06T12:20:31;4.40;;;2.28;;
70078;SDS011;57451;52.496;13.456;2023-04-06T12:22:59;4.85;;;2.60;;
70078;SDS011;57451;52.496;13.456;2023-04-06T12:25:26;5.47;;;2.70;;
70078;SDS011;57451;52.496;13.456;2023-04-06T12:27:55;4.97;;;2.60;;
70078;SDS011;57451;52.496;13.456;2023-04-06T12:30:23;4.45;;;2.40;;
70078;SDS011;57451;52.496;13.456;2023-04-06T12:32:51;4.70;;;2.90;;
70078;SDS011;57451;52.496;13.456;2023-04-06T12:35:18;5.30;;;2.30;;
70078;SDS011;57451;52.496;13.456;2023-04-06T12:37:46;5.97;;;2.70;;
70078;SDS011;57451;52.496;13.456;2023-04-06T12:40:13;5.30;;;2.20;;
70078;SDS011;57451;52.496;13.456;2023-04-06T12:42:41;5.30;;;2.20;;
70078;SDS011;57451;52.496;13.456;2023-04-06T12:45:09;4.25;;;2.30;;
70078;SDS011;57451;52.496;13.456;2023-04-06T12:47:36;4.25;;;2.40;;
70078;SDS011;57451;52.496;13.456;2023-04-06T12:50:06;4.03;;;2.17;;
70078;SDS011;57451;52.496;13.456;2023-04-06T12:52:34;5.20;;;2.33;;
70078;SDS011;57451;52.496;13.456;2023-04-06T12:55:02;5.18;;;2.33;;
70078;SDS011;57451;52.496;13.456;2023-04-06T12:57:29;4.35;;;2.25;;
70078;SDS011;57451;52.496;13.456;2023-04-06T12:59:57;4.68;;;2.30;;
70078;SDS011;57451;52.496;13.456;2023-04-06T13:02:25;5.80;;;2.33;;
70078;SDS011;57451;52.496;13.456;2023-04-06T13:04:52;5.68;;;2.28;;
70078;SDS011;57451;52.496;13.456;2023-04-06T13:07:21;5.07;;;2.50;;
70078;SDS011;57451;52.496;13.456;2023-04-06T13:09:48;5.38;;;2.50;;
70078;SDS011;57451;52.496;13.456;2023-04-06T13:12:16;5.32;;;2.70;;
70078;SDS011;57451;52.496;13.456;2023-04-06T13:14:43;5.87;;;2.73;;
70078;SDS011;57451;52.496;13.456;2023-04-06T13:17:10;4.20;;;2.50;;
70078;SDS011;57451;52.496;13.456;2023-04-06T13:19:38;5.13;;;2.38;;
70078;SDS011;57451;52.496;13.456;2023-04-06T13:22:05;6.10;;;2.30;;
70078;SDS011;57451;52.496;13.456;2023-04-06T13:24:34;4.82;;;2.10;;
70078;SDS011;57451;52.496;13.456;2023-04-06T13:27:01;6.47;;;2.40;;
70078;SDS011;57451;52.496;13.456;2023-04-06T13:29:29;5.43;;;3.08;;
70078;SDS011;57451;52.496;13.456;2023-04-06T13:31:56;5.38;;;3.03;;
70078;SDS011;57451;52.496;13.456;2023-04-06T13:34:23;4.47;;;2.50;;
70078;SDS011;57451;52.496;13.456;2023-04-06T13:36:51;4.53;;;2.17;;
70078;SDS011;57451;52.496;13.456;2023-04-06T13:39:18;6.27;;;2.37;;
70078;SDS011;57451;52.496;13.456;2023-04-06T13:41:47;6.63;;;2.40;;
70078;SDS011;57451;52.496;13.456;2023-04-06T13:44:14;5.05;;;2.85;;
70078;SDS011;57451;52.496;13.456;2023-04-06T13:46:42;4.95;;;2.25;;
70078;SDS011;57451;52.496;13.456;2023-04-06T13:49:10;5.65;;;2.53;;
70078;SDS011;57451;52.496;13.456;2023-04-06T13:51:37;5.40;;;2.53;;
70078;SDS011;57451;52.496;13.456;2023-04-06T13:54:04;5.75;;;2.45;;
70078;SDS011;57451;52.496;13.456;2023-04-06T13:56:32;6.32;;;2.53;;
70078;SDS011;57451;52.496;13.456;2023-04-06T13:59:00;5.20;;;2.47;;
70078;SDS011;57451;52.496;13.456;2023-04-06T14:01:29;4.60;;;2.67;;
70078;SDS011;57451;52.496;13.456;2023-04-06T14:03:56;4.97;;;2.40;;
70078;SDS011;57451;52.496;13.456;2023-04-06T14:06:24;4.93;;;2.40;;
70078;SDS011;57451;52.496;13.456;2023-04-06T14:08:57;4.68;;;2.30;;
70078;SDS011;57451;52.496;13.456;2023-04-06T14:11:24;6.45;;;2.42;;
70078;SDS011;57451;52.496;13.456;2023-04-06T14:13:52;4.40;;;2.28;;
70078;SDS011;57451;52.496;13.456;2023-04-06T14:16:24;4.63;;;2.47;;
70078;SDS011;57451;52.496;13.456;2023-04-06T14:18:52;5.07;;;1.95;;
70078;SDS011;57451;52.496;13.456;2023-04-06T14:21:19;5.53;;;2.60;;
70078;SDS011;57451;52.496;13.456;2023-04-06T14:23:47;5.00;;;2.55;;
70078;SDS011;57451;52.496;13.456;2023-04-06T14:26:14;4.63;;;2.80;;
70078;SDS011;57451;52.496;13.456;2023-04-06T14:28:41;4.60;;;2.50;;
70078;SDS011;57451;52.496;13.456;2023-04-06T14:31:10;4.70;;;2.60;;
70078;SDS011;57451;52.496;13.456;2023-04-06T14:33:40;5.35;;;2.70;;
70078;SDS011;57451;52.496;13.456;2023-04-06T14:36:08;7.18;;;2.55;;
70078;SDS011;57451;52.496;13.456;2023-04-06T14:38:36;5.32;;;2.33;;
70078;SDS011;57451;52.496;13.456;2023-04-06T14:41:04;5.73;;;2.47;;